sensor_id;sensor_type;location;lat;lon;timestamp;pressure;altitude;pressure_sealevel;temperature;humidity
23176;BME280;19910;42.652;23.332;2022-12-10T00:01:34;94005.41;;;8.11;100.00
23176;BME280;19910;42.652;23.332;2022-12-10T00:04:01;94015.25;;;8.07;100.00
23176;BME280;19910;42.652;23.332;2022-12-10T00:06:29;94007.38;;;8.02;99.83
23176;BME280;19910;42.652;23.332;2022-12-10T00:08:56;94013.56;;;8.03;100.00
23176;BME280;19910;42.652;23.332;2022-12-10T00:11:24;94000.00;;;7.91;100.00
23176;BME280;19910;42.652;23.332;2022-12-10T00:13:52;93997.47;;;7.85;100.00
23176;BME280;19910;42.652;23.332;2022-12-10T00:16:22;94003.13;;;7.93;100.00
23176;BME280;19910;42.652;23.332;2022-12-10T00:18:50;93999.59;;;8.01;100.00
23176;BME280;19910;42.652;23.332;2022-12-10T00:21:19;93991.59;;;8.13;100.00
23176;BME280;19910;42.652;23.332;2022-12-10T00:23:46;93992.97;;;7.98;100.00
23176;BME280;19910;42.652;23.332;2022-12-10T00:26:14;93978.53;;;7.94;100.00
23176;BME280;19910;42.652;23.332;2022-12-10T00:28:42;93979.16;;;8.00;100.00
23176;BME280;19910;42.652;23.332;2022-12-10T00:31:10;93983.13;;;7.94;100.00
23176;BME280;19910;42.652;23.332;2022-12-10T00:33:39;93999.31;;;7.94;100.00
23176;BME280;19910;42.652;23.332;2022-12-10T00:36:08;94008.53;;;7.93;100.00
23176;BME280;19910;42.652;23.332;2022-12-10T00:38:36;93992.22;;;7.89;100.00
23176;BME280;19910;42.652;23.332;2022-12-10T00:41:03;94007.38;;;8.02;100.00
23176;BME280;19910;42.652;23.332;2022-12-10T00:43:30;94006.84;;;8.09;100.00
23176;BME280;19910;42.652;23.332;2022-12-10T00:45:57;94001.28;;;8.14;100.00
23176;BME280;19910;42.652;23.332;2022-12-10T00:48:24;93997.88;;;7.96;100.00
23176;BME280;19910;42.652;23.332;2022-12-10T00:50:57;93992.53;;;7.88;100.00
23176;BME280;19910;42.652;23.332;2022-12-10T00:53:25;93999.06;;;7.87;100.00
23176;BME280;19910;42.652;23.332;2022-12-10T00:55:52;93996.28;;;7.95;100.00
23176;BME280;19910;42.652;23.332;2022-12-10T00:58:19;94018.97;;;8.03;100.00
23176;BME280;19910;42.652;23.332;2022-12-10T01:00:46;94011.97;;;8.02;100.00
23176;BME280;19910;42.652;23.332;2022-12-10T01:03:14;94002.16;;;7.97;100.00
23176;BME280;19910;42.652;23.332;2022-12-10T01:05:40;94012.91;;;8.06;100.00
23176;BME280;19910;42.652;23.332;2022-12-10T01:08:09;93998.03;;;8.20;100.00
23176;BME280;19910;42.652;23.332;2022-12-10T01:10:35;94004.16;;;8.38;100.00
23176;BME280;19910;42.652;23.332;2022-12-10T01:13:02;94000.31;;;8.39;100.00
23176;BME280;19910;42.652;23.332;2022-12-10T01:15:29;93997.16;;;8.37;99.93
23176;BME280;19910;42.652;23.332;2022-12-10T01:17:56;93983.47;;;8.42;99.26
23176;BME280;19910;42.652;23.332;2022-12-10T01:20:23;93989.44;;;8.27;99.45
23176;BME280;19910;42.652;23.332;2022-12-10T01:22:50;93990.56;;;8.26;100.00
23176;BME280;19910;42.652;23.332;2022-12-10T01:25:18;93967.38;;;8.25;100.00
23176;BME280;19910;42.652;23.332;2022-12-10T01:27:45;93974.38;;;8.05;100.00
23176;BME280;19910;42.652;23.332;2022-12-10T01:30:12;93964.16;;;8.11;100.00
23176;BME280;19910;42.652;23.332;2022-12-10T01:32:38;93971.53;;;8.23;100.00
23176;BME280;19910;42.652;23.332;2022-12-10T01:35:05;93967.47;;;8.37;100.00
23176;BME280;19910;42.652;23.332;2022-12-10T01:37:32;93968.31;;;8.29;100.00
23176;BME280;19910;42.652;23.332;2022-12-10T01:39:59;93972.53;;;8.18;100.00
23176;BME280;19910;42.652;23.332;2022-12-10T01:42:27;93972.91;;;8.08;100.00
23176;BME280;19910;42.652;23.332;2022-12-10T01:45:07;93973.03;;;7.91;100.00
23176;BME280;19910;42.652;23.332;2022-12-10T01:47:34;93977.09;;;7.97;100.00
23176;BME280;19910;42.652;23.332;2022-12-10T01:50:02;93970.41;;;8.03;100.00
23176;BME280;19910;42.652;23.332;2022-12-10T01:52:29;93954.69;;;8.05;100.00
23176;BME280;19910;42.652;23.332;2022-12-10T01:54:56;93949.56;;;8.12;100.00
23176;BME280;19910;42.652;23.332;2022-12-10T01:57:25;93961.06;;;8.21;100.00
23176;BME280;19910;42.652;23.332;2022-12-10T01:59:56;93965.63;;;8.29;100.00
23176;BME280;19910;42.652;23.332;2022-12-10T02:02:33;93968.50;;;8.24;100.00
23176;BME280;19910;42.652;23.332;2022-12-10T02:05:09;93973.72;;;8.29;100.00
23176;BME280;19910;42.652;23.332;2022-12-10T02:07:51;93955.66;;;8.21;100.00
23176;BME280;19910;42.652;23.332;2022-12-10T02:10:28;93969.63;;;8.23;100.00
23176;BME280;19910;42.652;23.332;2022-12-10T02:13:05;93994.28;;;8.42;100.00
23176;BME280;19910;42.652;23.332;2022-12-10T02:15:40;93983.72;;;8.49;99.65
23176;BME280;19910;42.652;23.332;2022-12-10T02:18:10;93975.16;;;8.47;99.31
23176;BME280;19910;42.652;23.332;2022-12-10T02:20:41;93981.03;;;8.49;99.40
23176;BME280;19910;42.652;23.332;2022-12-10T02:23:12;93957.44;;;8.46;99.46
23176;BME280;19910;42.652;23.332;2022-12-10T02:25:45;93961.06;;;8.63;99.92
23176;BME280;19910;42.652;23.332;2022-12-10T02:28:17;93938.56;;;8.59;100.00
23176;BME280;19910;42.652;23.332;2022-12-10T02:30:50;93949.09;;;8.51;99.39
23176;BME280;19910;42.652;23.332;2022-12-10T02:33:20;93954.63;;;8.55;99.77
23176;BME280;19910;42.652;23.332;2022-12-10T02:35:50;93944.78;;;8.59;99.89
23176;BME280;19910;42.652;23.332;2022-12-10T02:38:23;93942.72;;;8.56;99.25
23176;BME280;19910;42.652;23.332;2022-12-10T02:40:57;93939.25;;;8.55;99.48
23176;BME280;19910;42.652;23.332;2022-12-10T02:43:27;93934.75;;;8.60;99.21
23176;BME280;19910;42.652;23.332;2022-12-10T02:45:58;93923.03;;;8.55;99.06
23176;BME280;19910;42.652;23.332;2022-12-10T02:48:26;93920.22;;;8.52;99.68
23176;BME280;19910;42.652;23.332;2022-12-10T02:50:53;93920.00;;;8.57;99.43
23176;BME280;19910;42.652;23.332;2022-12-10T02:53:20;93932.25;;;8.54;99.52
23176;BME280;19910;42.652;23.332;2022-12-10T02:55:56;93943.19;;;8.58;100.00
23176;BME280;19910;42.652;23.332;2022-12-10T02:58:29;93946.09;;;8.53;99.91
23176;BME280;19910;42.652;23.332;2022-12-10T03:01:06;93942.41;;;8.58;100.00
23176;BME280;19910;42.652;23.332;2022-12-10T03:03:40;93941.19;;;8.67;100.00
23176;BME280;19910;42.652;23.332;2022-12-10T03:06:14;93938.16;;;8.69;100.00
23176;BME280;19910;42.652;23.332;2022-12-10T03:08:46;93939.09;;;8.73;100.00
23176;BME280;19910;42.652;23.332;2022-12-10T03:11:17;93921.75;;;8.74;99.38
23176;BME280;19910;42.652;23.332;2022-12-10T03:13:50;93942.53;;;9.06;97.68
23176;BME280;19910;42.652;23.332;2022-12-10T03:16:21;93927.56;;;8.97;97.90
23176;BME280;19910;42.652;23.332;2022-12-10T03:18:52;93928.34;;;8.97;97.54
23176;BME280;19910;42.652;23.332;2022-12-10T03:21:20;93933.94;;;8.92;98.17
23176;BME280;19910;42.652;23.332;2022-12-10T03:23:47;93927.44;;;8.93;99.06
23176;BME280;19910;42.652;23.332;2022-12-10T03:26:16;93947.31;;;8.88;98.91
23176;BME280;19910;42.652;23.332;2022-12-10T03:28:46;93941.25;;;8.91;98.73
23176;BME280;19910;42.652;23.332;2022-12-10T03:31:15;93931.91;;;8.89;98.37
23176;BME280;19910;42.652;23.332;2022-12-10T03:33:45;93922.03;;;8.93;98.12
23176;BME280;19910;42.652;23.332;2022-12-10T03:36:13;93939.38;;;9.04;97.52
23176;BME280;19910;42.652;23.332;2022-12-10T03:38:41;93926.66;;;9.05;97.06
23176;BME280;19910;42.652;23.332;2022-12-10T03:41:09;93918.94;;;9.15;95.99
23176;BME280;19910;42.652;23.332;2022-12-10T03:43:35;93918.69;;;9.20;96.02
23176;BME280;19910;42.652;23.332;2022-12-10T03:46:02;93925.69;;;9.21;96.63
23176;BME280;19910;42.652;23.332;2022-12-10T03:48:30;93923.78;;;9.22;96.65
23176;BME280;19910;42.652;23.332;2022-12-10T03:50:58;93901.38;;;9.34;95.32
23176;BME280;19910;42.652;23.332;2022-12-10T03:53:24;93911.75;;;9.56;94.39
23176;BME280;19910;42.652;23.332;2022-12-10T03:55:51;93894.84;;;9.59;94.09
23176;BME280;19910;42.652;23.332;2022-12-10T03:58:18;93898.09;;;9.65;94.21
23176;BME280;19910;42.652;23.332;2022-12-10T04:00:45;93890.56;;;9.70;94.49
23176;BME280;19910;42.652;23.332;2022-12-10T04:03:11;93884.13;;;9.75;93.92
23176;BME280;19910;42.652;23.332;2022-12-10T04:05:38;93915.09;;;9.77;93.76
23176;BME280;19910;42.652;23.332;2022-12-10T04:08:06;93907.91;;;9.81;93.39
23176;BME280;19910;42.652;23.332;2022-12-10T04:10:35;93896.38;;;9.84;93.42
23176;BME280;19910;42.652;23.332;2022-12-10T04:13:02;93890.97;;;9.84;93.21
23176;BME280;19910;42.652;23.332;2022-12-10T04:15:46;93880.88;;;9.69;93.67
23176;BME280;19910;42.652;23.332;2022-12-10T04:18:30;93896.66;;;9.67;93.94
23176;BME280;19910;42.652;23.332;2022-12-10T04:20:57;93890.22;;;9.59;94.53
23176;BME280;19910;42.652;23.332;2022-12-10T04:23:42;93900.50;;;9.42;95.83
23176;BME280;19910;42.652;23.332;2022-12-10T04:26:27;93908.13;;;9.40;96.63
23176;BME280;19910;42.652;23.332;2022-12-10T04:29:11;93918.03;;;9.48;96.29
23176;BME280;19910;42.652;23.332;2022-12-10T04:31:38;93916.72;;;9.54;95.86
23176;BME280;19910;42.652;23.332;2022-12-10T04:34:05;93912.63;;;9.48;96.41
23176;BME280;19910;42.652;23.332;2022-12-10T04:36:32;93922.00;;;9.38;97.25
23176;BME280;19910;42.652;23.332;2022-12-10T04:39:00;93928.06;;;9.35;97.96
23176;BME280;19910;42.652;23.332;2022-12-10T04:41:26;93935.63;;;9.42;98.80
23176;BME280;19910;42.652;23.332;2022-12-10T04:43:53;93940.78;;;9.47;99.20
23176;BME280;19910;42.652;23.332;2022-12-10T04:46:20;93937.22;;;9.43;98.71
23176;BME280;19910;42.652;23.332;2022-12-10T04:48:47;93929.75;;;9.40;99.33
23176;BME280;19910;42.652;23.332;2022-12-10T04:51:14;93922.91;;;9.42;99.28
23176;BME280;19910;42.652;23.332;2022-12-10T04:53:40;93933.00;;;9.45;99.11
23176;BME280;19910;42.652;23.332;2022-12-10T04:56:08;93929.97;;;9.47;99.39
23176;BME280;19910;42.652;23.332;2022-12-10T04:58:35;93921.66;;;9.52;99.00
23176;BME280;19910;42.652;23.332;2022-12-10T05:01:03;93917.91;;;9.44;99.33
23176;BME280;19910;42.652;23.332;2022-12-10T05:03:30;93930.09;;;9.50;99.26
23176;BME280;19910;42.652;23.332;2022-12-10T05:06:00;93931.56;;;9.48;100.00
23176;BME280;19910;42.652;23.332;2022-12-10T05:08:27;93923.56;;;9.39;100.00
23176;BME280;19910;42.652;23.332;2022-12-10T05:10:54;93931.81;;;9.43;100.00
23176;BME280;19910;42.652;23.332;2022-12-10T05:13:22;93919.63;;;9.49;100.00
23176;BME280;19910;42.652;23.332;2022-12-10T05:15:49;93923.13;;;9.49;100.00
23176;BME280;19910;42.652;23.332;2022-12-10T05:18:15;93915.69;;;9.46;100.00
23176;BME280;19910;42.652;23.332;2022-12-10T05:20:42;93907.44;;;9.31;100.00
23176;BME280;19910;42.652;23.332;2022-12-10T05:23:09;93885.59;;;9.23;100.00
23176;BME280;19910;42.652;23.332;2022-12-10T05:25:58;93909.00;;;9.19;100.00
23176;BME280;19910;42.652;23.332;2022-12-10T05:28:26;93912.84;;;9.18;100.00
23176;BME280;19910;42.652;23.332;2022-12-10T05:30:53;93923.66;;;9.18;100.00
23176;BME280;19910;42.652;23.332;2022-12-10T05:33:20;93905.63;;;9.10;100.00
23176;BME280;19910;42.652;23.332;2022-12-10T05:35:52;93919.69;;;9.16;100.00
23176;BME280;19910;42.652;23.332;2022-12-10T05:38:19;93924.88;;;9.21;100.00
23176;BME280;19910;42.652;23.332;2022-12-10T05:40:46;93913.09;;;9.25;100.00
23176;BME280;19910;42.652;23.332;2022-12-10T05:43:13;93923.44;;;9.23;100.00
23176;BME280;19910;42.652;23.332;2022-12-10T05:45:41;93920.72;;;9.23;100.00
23176;BME280;19910;42.652;23.332;2022-12-10T05:48:09;93922.97;;;9.21;100.00
23176;BME280;19910;42.652;23.332;2022-12-10T05:50:36;93924.44;;;9.19;100.00
23176;BME280;19910;42.652;23.332;2022-12-10T05:53:02;93930.63;;;9.19;100.00
23176;BME280;19910;42.652;23.332;2022-12-10T05:55:30;93931.88;;;9.22;100.00
23176;BME280;19910;42.652;23.332;2022-12-10T05:57:58;93932.47;;;9.27;100.00
23176;BME280;19910;42.652;23.332;2022-12-10T06:00:25;93934.50;;;9.43;100.00
23176;BME280;19910;42.652;23.332;2022-12-10T06:02:54;93943.94;;;9.49;100.00
23176;BME280;19910;42.652;23.332;2022-12-10T06:05:21;93940.56;;;9.40;100.00
23176;BME280;19910;42.652;23.332;2022-12-10T06:07:48;93940.34;;;9.45;100.00
23176;BME280;19910;42.652;23.332;2022-12-10T06:10:15;93938.53;;;9.49;100.00
23176;BME280;19910;42.652;23.332;2022-12-10T06:12:41;93953.31;;;9.51;100.00
23176;BME280;19910;42.652;23.332;2022-12-10T06:15:09;93954.09;;;9.52;100.00
23176;BME280;19910;42.652;23.332;2022-12-10T06:17:36;93929.88;;;9.55;100.00
23176;BME280;19910;42.652;23.332;2022-12-10T06:20:05;93927.50;;;9.66;100.00
23176;BME280;19910;42.652;23.332;2022-12-10T06:22:33;93928.97;;;9.76;100.00
23176;BME280;19910;42.652;23.332;2022-12-10T06:25:00;93923.53;;;9.88;100.00
23176;BME280;19910;42.652;23.332;2022-12-10T06:27:29;93937.88;;;9.76;100.00
23176;BME280;19910;42.652;23.332;2022-12-10T06:29:56;93930.09;;;9.75;100.00
23176;BME280;19910;42.652;23.332;2022-12-10T06:32:23;93919.53;;;9.70;100.00
23176;BME280;19910;42.652;23.332;2022-12-10T06:34:49;93914.53;;;9.72;100.00
23176;BME280;19910;42.652;23.332;2022-12-10T06:37:17;93905.66;;;9.83;100.00
23176;BME280;19910;42.652;23.332;2022-12-10T06:39:44;93900.47;;;9.78;100.00
23176;BME280;19910;42.652;23.332;2022-12-10T06:42:11;93908.25;;;9.68;100.00
23176;BME280;19910;42.652;23.332;2022-12-10T06:44:38;93913.31;;;9.69;100.00
23176;BME280;19910;42.652;23.332;2022-12-10T06:47:05;93916.91;;;9.49;100.00
23176;BME280;19910;42.652;23.332;2022-12-10T06:49:31;93918.50;;;9.62;100.00
23176;BME280;19910;42.652;23.332;2022-12-10T06:51:58;93929.19;;;9.71;100.00
23176;BME280;19910;42.652;23.332;2022-12-10T06:54:26;93943.28;;;9.76;100.00
23176;BME280;19910;42.652;23.332;2022-12-10T06:56:53;93944.66;;;9.82;100.00
23176;BME280;19910;42.652;23.332;2022-12-10T06:59:20;93944.84;;;9.77;100.00
23176;BME280;19910;42.652;23.332;2022-12-10T07:01:47;93945.97;;;9.76;100.00
23176;BME280;19910;42.652;23.332;2022-12-10T07:04:14;93935.38;;;9.71;100.00
23176;BME280;19910;42.652;23.332;2022-12-10T07:06:42;93936.50;;;9.58;100.00
23176;BME280;19910;42.652;23.332;2022-12-10T07:09:09;93944.88;;;9.53;100.00
23176;BME280;19910;42.652;23.332;2022-12-10T07:11:37;93954.31;;;9.59;100.00
23176;BME280;19910;42.652;23.332;2022-12-10T07:14:04;93945.31;;;9.67;100.00
23176;BME280;19910;42.652;23.332;2022-12-10T07:16:32;93941.13;;;9.57;100.00
23176;BME280;19910;42.652;23.332;2022-12-10T07:19:00;93936.28;;;9.51;100.00
23176;BME280;19910;42.652;23.332;2022-12-10T07:21:29;93932.59;;;9.55;100.00
23176;BME280;19910;42.652;23.332;2022-12-10T07:23:59;93928.84;;;9.60;100.00
23176;BME280;19910;42.652;23.332;2022-12-10T07:26:28;93931.78;;;9.79;100.00
23176;BME280;19910;42.652;23.332;2022-12-10T07:28:57;93916.34;;;9.80;100.00
23176;BME280;19910;42.652;23.332;2022-12-10T07:31:24;93900.13;;;9.80;100.00
23176;BME280;19910;42.652;23.332;2022-12-10T07:33:53;93892.34;;;9.78;100.00
23176;BME280;19910;42.652;23.332;2022-12-10T07:36:21;93905.97;;;9.94;100.00
23176;BME280;19910;42.652;23.332;2022-12-10T07:38:48;93909.63;;;10.14;100.00
23176;BME280;19910;42.652;23.332;2022-12-10T07:41:15;93907.94;;;10.33;100.00
23176;BME280;19910;42.652;23.332;2022-12-10T07:43:44;93913.78;;;10.36;100.00
23176;BME280;19910;42.652;23.332;2022-12-10T07:46:15;93905.38;;;10.25;100.00
23176;BME280;19910;42.652;23.332;2022-12-10T07:48:43;93928.31;;;10.43;100.00
23176;BME280;19910;42.652;23.332;2022-12-10T07:51:10;93916.78;;;10.46;100.00
23176;BME280;19910;42.652;23.332;2022-12-10T07:53:37;93903.03;;;10.51;100.00
23176;BME280;19910;42.652;23.332;2022-12-10T07:56:05;93907.03;;;10.57;100.00
23176;BME280;19910;42.652;23.332;2022-12-10T07:58:32;93894.50;;;10.81;100.00
23176;BME280;19910;42.652;23.332;2022-12-10T08:01:05;93886.94;;;10.58;100.00
23176;BME280;19910;42.652;23.332;2022-12-10T08:03:34;93880.47;;;10.47;100.00
23176;BME280;19910;42.652;23.332;2022-12-10T08:06:01;93877.19;;;10.69;100.00
23176;BME280;19910;42.652;23.332;2022-12-10T08:08:28;93871.53;;;10.75;100.00
23176;BME280;19910;42.652;23.332;2022-12-10T08:10:55;93868.38;;;10.73;100.00
23176;BME280;19910;42.652;23.332;2022-12-10T08:13:22;93879.34;;;10.92;100.00
23176;BME280;19910;42.652;23.332;2022-12-10T08:15:48;93867.44;;;10.96;99.76
23176;BME280;19910;42.652;23.332;2022-12-10T08:18:15;93863.94;;;10.96;99.20
23176;BME280;19910;42.652;23.332;2022-12-10T08:20:43;93872.53;;;11.29;98.67
23176;BME280;19910;42.652;23.332;2022-12-10T08:23:10;93875.84;;;11.38;97.80
23176;BME280;19910;42.652;23.332;2022-12-10T08:25:37;93864.22;;;11.38;96.39
23176;BME280;19910;42.652;23.332;2022-12-10T08:28:04;93867.88;;;10.98;98.51
23176;BME280;19910;42.652;23.332;2022-12-10T08:30:30;93866.94;;;10.91;99.15
23176;BME280;19910;42.652;23.332;2022-12-10T08:32:57;93869.03;;;11.13;99.01
23176;BME280;19910;42.652;23.332;2022-12-10T08:35:24;93860.03;;;11.25;97.32
23176;BME280;19910;42.652;23.332;2022-12-10T08:37:52;93857.66;;;11.23;97.55
23176;BME280;19910;42.652;23.332;2022-12-10T08:40:19;93858.00;;;11.37;97.83
23176;BME280;19910;42.652;23.332;2022-12-10T08:42:45;93857.91;;;11.50;97.89
23176;BME280;19910;42.652;23.332;2022-12-10T08:45:12;93840.00;;;11.29;96.08
23176;BME280;19910;42.652;23.332;2022-12-10T08:47:39;93852.59;;;11.37;95.68
23176;BME280;19910;42.652;23.332;2022-12-10T08:50:06;93842.28;;;11.43;95.93
23176;BME280;19910;42.652;23.332;2022-12-10T08:52:33;93834.94;;;11.28;96.14
23176;BME280;19910;42.652;23.332;2022-12-10T08:55:01;93833.81;;;11.64;97.34
23176;BME280;19910;42.652;23.332;2022-12-10T08:57:28;93846.66;;;11.48;96.23
23176;BME280;19910;42.652;23.332;2022-12-10T08:59:55;93838.88;;;11.46;96.04
23176;BME280;19910;42.652;23.332;2022-12-10T09:02:21;93828.69;;;11.59;98.23
23176;BME280;19910;42.652;23.332;2022-12-10T09:04:49;93831.63;;;12.62;95.51
23176;BME280;19910;42.652;23.332;2022-12-10T09:07:16;93831.63;;;12.62;93.03
23176;BME280;19910;42.652;23.332;2022-12-10T09:09:43;93822.66;;;12.20;91.28
23176;BME280;19910;42.652;23.332;2022-12-10T09:12:11;93802.31;;;11.75;93.80
23176;BME280;19910;42.652;23.332;2022-12-10T09:14:38;93811.06;;;11.33;96.95
23176;BME280;19910;42.652;23.332;2022-12-10T09:17:06;93812.72;;;11.22;98.08
23176;BME280;19910;42.652;23.332;2022-12-10T09:19:32;93830.63;;;11.43;98.30
23176;BME280;19910;42.652;23.332;2022-12-10T09:21:59;93827.38;;;11.53;97.13
23176;BME280;19910;42.652;23.332;2022-12-10T09:24:27;93838.25;;;11.21;98.51
23176;BME280;19910;42.652;23.332;2022-12-10T09:26:53;93826.19;;;11.03;99.39
23176;BME280;19910;42.652;23.332;2022-12-10T09:29:22;93819.00;;;10.95;100.00
23176;BME280;19910;42.652;23.332;2022-12-10T09:31:50;93813.78;;;11.02;100.00
23176;BME280;19910;42.652;23.332;2022-12-10T09:34:16;93819.72;;;11.23;100.00
23176;BME280;19910;42.652;23.332;2022-12-10T09:36:43;93816.19;;;11.38;99.22
23176;BME280;19910;42.652;23.332;2022-12-10T09:39:11;93793.03;;;11.41;97.71
23176;BME280;19910;42.652;23.332;2022-12-10T09:41:54;93788.94;;;11.31;98.10
23176;BME280;19910;42.652;23.332;2022-12-10T09:44:35;93786.38;;;11.38;98.81
23176;BME280;19910;42.652;23.332;2022-12-10T09:47:07;93790.84;;;11.66;98.20
23176;BME280;19910;42.652;23.332;2022-12-10T09:49:42;93789.78;;;11.86;96.30
23176;BME280;19910;42.652;23.332;2022-12-10T09:52:16;93768.94;;;12.09;95.42
23176;BME280;19910;42.652;23.332;2022-12-10T09:54:48;93770.50;;;12.10;94.17
23176;BME280;19910;42.652;23.332;2022-12-10T09:57:20;93760.78;;;11.90;95.16
23176;BME280;19910;42.652;23.332;2022-12-10T09:59:50;93763.34;;;11.83;95.07
23176;BME280;19910;42.652;23.332;2022-12-10T10:02:22;93761.63;;;11.94;95.08
23176;BME280;19910;42.652;23.332;2022-12-10T10:04:54;93773.06;;;12.23;94.79
23176;BME280;19910;42.652;23.332;2022-12-10T10:07:23;93776.56;;;12.42;92.98
23176;BME280;19910;42.652;23.332;2022-12-10T10:09:55;93764.91;;;12.42;92.21
23176;BME280;19910;42.652;23.332;2022-12-10T10:12:23;93768.78;;;12.22;92.26
23176;BME280;19910;42.652;23.332;2022-12-10T10:14:51;93760.88;;;12.13;93.16
23176;BME280;19910;42.652;23.332;2022-12-10T10:17:21;93756.31;;;12.40;92.17
23176;BME280;19910;42.652;23.332;2022-12-10T10:19:49;93764.91;;;12.42;92.35
23176;BME280;19910;42.652;23.332;2022-12-10T10:22:16;93765.97;;;12.37;92.62
23176;BME280;19910;42.652;23.332;2022-12-10T10:24:45;93752.66;;;12.52;91.66
23176;BME280;19910;42.652;23.332;2022-12-10T10:27:14;93744.88;;;12.96;90.89
23176;BME280;19910;42.652;23.332;2022-12-10T10:29:43;93739.06;;;13.20;88.83
23176;BME280;19910;42.652;23.332;2022-12-10T10:32:15;93730.22;;;13.04;88.50
23176;BME280;19910;42.652;23.332;2022-12-10T10:34:43;93726.31;;;13.24;88.22
23176;BME280;19910;42.652;23.332;2022-12-10T10:37:15;93706.59;;;13.61;86.02
23176;BME280;19910;42.652;23.332;2022-12-10T10:39:47;93722.16;;;13.90;86.64
23176;BME280;19910;42.652;23.332;2022-12-10T10:42:27;93710.03;;;14.17;85.18
23176;BME280;19910;42.652;23.332;2022-12-10T10:44:56;93710.19;;;14.32;83.23
23176;BME280;19910;42.652;23.332;2022-12-10T10:47:29;93692.69;;;13.99;83.45
23176;BME280;19910;42.652;23.332;2022-12-10T10:49:56;93703.00;;;14.16;83.76
23176;BME280;19910;42.652;23.332;2022-12-10T10:52:27;93710.34;;;14.46;82.52
23176;BME280;19910;42.652;23.332;2022-12-10T10:54:54;93711.91;;;14.47;81.15
23176;BME280;19910;42.652;23.332;2022-12-10T10:57:26;93696.19;;;14.37;81.29
23176;BME280;19910;42.652;23.332;2022-12-10T10:59:55;93691.06;;;13.95;82.95
23176;BME280;19910;42.652;23.332;2022-12-10T11:02:30;93676.59;;;13.87;83.72
23176;BME280;19910;42.652;23.332;2022-12-10T11:05:05;93671.94;;;14.24;82.73
23176;BME280;19910;42.652;23.332;2022-12-10T11:07:35;93673.78;;;14.50;82.19
23176;BME280;19910;42.652;23.332;2022-12-10T11:10:04;93671.66;;;14.33;82.63
23176;BME280;19910;42.652;23.332;2022-12-10T11:12:42;93653.19;;;14.16;82.94
23176;BME280;19910;42.652;23.332;2022-12-10T11:15:33;93656.22;;;14.07;83.46
23176;BME280;19910;42.652;23.332;2022-12-10T11:18:03;93651.59;;;14.11;83.93
23176;BME280;19910;42.652;23.332;2022-12-10T11:20:56;93636.63;;;14.35;83.41
23176;BME280;19910;42.652;23.332;2022-12-10T11:23:27;93633.22;;;14.42;83.44
23176;BME280;19910;42.652;23.332;2022-12-10T11:25:58;93617.47;;;14.24;83.81
23176;BME280;19910;42.652;23.332;2022-12-10T11:28:37;93612.75;;;14.18;83.95
23176;BME280;19910;42.652;23.332;2022-12-10T11:31:26;93621.34;;;14.61;82.89
23176;BME280;19910;42.652;23.332;2022-12-10T11:34:02;93629.03;;;15.03;81.69
23176;BME280;19910;42.652;23.332;2022-12-10T11:36:38;93625.66;;;15.23;80.22
23176;BME280;19910;42.652;23.332;2022-12-10T11:39:21;93618.25;;;15.24;79.45
23176;BME280;19910;42.652;23.332;2022-12-10T11:41:54;93614.22;;;15.04;80.33
23176;BME280;19910;42.652;23.332;2022-12-10T11:44:26;93611.34;;;14.82;80.75
23176;BME280;19910;42.652;23.332;2022-12-10T11:47:13;93615.72;;;14.94;80.82
23176;BME280;19910;42.652;23.332;2022-12-10T11:49:48;93619.66;;;15.04;79.84
23176;BME280;19910;42.652;23.332;2022-12-10T11:52:37;93607.81;;;14.78;80.83
23176;BME280;19910;42.652;23.332;2022-12-10T11:55:17;93618.56;;;14.57;81.92
23176;BME280;19910;42.652;23.332;2022-12-10T11:57:52;93625.59;;;14.58;81.79
23176;BME280;19910;42.652;23.332;2022-12-10T12:00:27;93601.50;;;14.67;81.91
23176;BME280;19910;42.652;23.332;2022-12-10T12:03:09;93604.69;;;14.76;81.62
23176;BME280;19910;42.652;23.332;2022-12-10T12:05:55;93605.59;;;14.94;81.40
23176;BME280;19910;42.652;23.332;2022-12-10T12:08:38;93596.97;;;14.85;80.64
23176;BME280;19910;42.652;23.332;2022-12-10T12:11:22;93603.91;;;14.72;81.69
23176;BME280;19910;42.652;23.332;2022-12-10T12:13:57;93591.34;;;14.61;82.22
23176;BME280;19910;42.652;23.332;2022-12-10T12:16:30;93594.41;;;14.55;82.53
23176;BME280;19910;42.652;23.332;2022-12-10T12:19:00;93599.19;;;14.69;82.18
23176;BME280;19910;42.652;23.332;2022-12-10T12:21:30;93600.00;;;14.73;82.10
23176;BME280;19910;42.652;23.332;2022-12-10T12:23:59;93578.09;;;14.59;82.08
23176;BME280;19910;42.652;23.332;2022-12-10T12:26:32;93575.75;;;14.57;82.41
23176;BME280;19910;42.652;23.332;2022-12-10T12:29:10;93570.88;;;14.37;83.04
23176;BME280;19910;42.652;23.332;2022-12-10T12:31:40;93569.44;;;14.50;83.07
23176;BME280;19910;42.652;23.332;2022-12-10T12:34:15;93568.88;;;14.74;82.17
23176;BME280;19910;42.652;23.332;2022-12-10T12:36:45;93558.16;;;14.48;82.75
23176;BME280;19910;42.652;23.332;2022-12-10T12:39:19;93540.72;;;14.60;83.02
23176;BME280;19910;42.652;23.332;2022-12-10T12:41:54;93541.59;;;14.74;82.29
23176;BME280;19910;42.652;23.332;2022-12-10T12:44:27;93535.44;;;14.84;81.62
23176;BME280;19910;42.652;23.332;2022-12-10T12:46:58;93533.03;;;14.79;81.95
23176;BME280;19910;42.652;23.332;2022-12-10T12:49:30;93529.16;;;14.80;82.32
23176;BME280;19910;42.652;23.332;2022-12-10T12:52:02;93532.31;;;14.86;82.03
23176;BME280;19910;42.652;23.332;2022-12-10T12:54:31;93518.94;;;14.63;82.30
23176;BME280;19910;42.652;23.332;2022-12-10T12:57:03;93531.47;;;14.75;82.29
23176;BME280;19910;42.652;23.332;2022-12-10T12:59:39;93527.59;;;14.76;82.57
23176;BME280;19910;42.652;23.332;2022-12-10T13:02:20;93518.94;;;14.63;82.88
23176;BME280;19910;42.652;23.332;2022-12-10T13:04:50;93506.19;;;14.27;84.01
23176;BME280;19910;42.652;23.332;2022-12-10T13:07:33;93490.03;;;14.00;85.58